Time;durP1;ratioP1;P1;durP2;ratioP2;P2;SDS_P1;SDS_P2;PMS_P1;PMS_P2;Temp;Humidity;BMP_temperature;BMP_pressure;BME280_temperature;BME280_humidity;BME280_pressure;Samples;Min_cycle;Max_cycle;Signal;HPM_P1;HPM_P2
2024/03/09 00:00:38;;;;;;;56.92;28.95;;;1.90;99.90;;;;;;5115391;28;20032;-60
2024/03/09 00:03:25;;;;;;;61.28;31.48;;;2.00;99.90;;;;;;5112812;28;20059;-61
2024/03/09 00:06:12;;;;;;;56.72;29.85;;;2.00;99.90;;;;;;5113943;27;20074;-60
2024/03/09 00:08:59;;;;;;;59.90;29.35;;;1.90;99.90;;;;;;5113648;27;20122;-60
2024/03/09 00:11:46;;;;;;;60.92;30.67;;;2.00;99.90;;;;;;5115747;27;20381;-60
2024/03/09 00:14:31;;;;;;;61.40;29.30;;;2.00;99.90;;;;;;5116539;27;20028;-60
2024/03/09 00:17:18;;;;;;;53.87;27.37;;;2.00;99.90;;;;;;5109277;28;20039;-60
2024/03/09 00:20:04;;;;;;;50.83;26.83;;;1.90;99.90;;;;;;5093834;27;20031;-60
2024/03/09 00:22:58;;;;;;;56.60;28.02;;;1.80;99.90;;;;;;5104531;27;20032;-61
2024/03/09 00:25:43;;;;;;;52.72;26.50;;;1.70;99.90;;;;;;5104480;28;20036;-58
2024/03/09 00:28:30;;;;;;;45.53;24.90;;;1.70;99.90;;;;;;5106133;27;20067;-60
2024/03/09 00:31:16;;;;;;;49.13;25.95;;;1.60;99.90;;;;;;5105000;28;20043;-61
2024/03/09 00:34:02;;;;;;;56.40;28.23;;;1.40;99.90;;;;;;5102036;28;20412;-59
2024/03/09 00:36:48;;;;;;;50.45;25.83;;;1.40;99.90;;;;;;5103327;27;20262;-60
2024/03/09 00:39:37;;;;;;;50.95;26.33;;;1.20;99.90;;;;;;5101867;27;20809;-60
2024/03/09 00:42:25;;;;;;;55.88;26.92;;;1.20;99.90;;;;;;5084338;28;20455;-60
2024/03/09 00:45:13;;;;;;;55.40;26.10;;;1.10;99.90;;;;;;5102863;27;20031;-60
2024/03/09 00:47:59;;;;;;;54.13;26.23;;;1.10;99.90;;;;;;5098192;27;20035;-60
2024/03/09 00:50:46;;;;;;;54.72;27.50;;;1.00;99.90;;;;;;5103651;28;20035;-60
2024/03/09 00:53:32;;;;;;;56.28;28.33;;;1.00;99.90;;;;;;5100871;28;20637;-60
2024/03/09 00:56:18;;;;;;;52.40;26.53;;;1.10;99.90;;;;;;5099363;28;20031;-60
2024/03/09 00:59:04;;;;;;;50.13;25.37;;;1.10;99.90;;;;;;5102445;28;20034;-59
2024/03/09 01:01:50;;;;;;;40.97;20.23;;;1.10;99.90;;;;;;5101473;27;20070;-60
2024/03/09 01:04:36;;;;;;;50.95;26.73;;;1.10;99.90;;;;;;5101535;27;20547;-60
2024/03/09 01:07:24;;;;;;;50.90;26.42;;;1.10;99.90;;;;;;5097996;28;20046;-60
2024/03/09 01:10:11;;;;;;;57.88;27.83;;;1.10;99.90;;;;;;5094425;28;20028;-60
2024/03/09 01:12:58;;;;;;;47.95;24.67;;;1.10;99.90;;;;;;5100311;28;20063;-60
2024/03/09 01:15:44;;;;;;;46.97;24.80;;;1.20;99.90;;;;;;5102158;28;20504;-60
2024/03/09 01:18:29;;;;;;;44.50;23.43;;;1.20;99.90;;;;;;5104496;27;20063;-60
2024/03/09 01:21:15;;;;;;;38.10;17.43;;;1.20;99.90;;;;;;5098386;28;20107;-60
2024/03/09 01:24:04;;;;;;;45.23;24.80;;;1.20;99.90;;;;;;5094462;27;20185;-59
2024/03/09 01:26:50;;;;;;;46.90;24.17;;;1.20;99.90;;;;;;5097838;28;20320;-57
2024/03/09 01:29:36;;;;;;;47.40;23.67;;;1.20;99.90;;;;;;5104974;27;20023;-60
2024/03/09 01:32:22;;;;;;;45.67;23.13;;;1.20;99.90;;;;;;5104130;27;20503;-60
2024/03/09 01:35:08;;;;;;;44.92;22.23;;;1.20;99.90;;;;;;5105832;27;20024;-60
2024/03/09 01:37:54;;;;;;;47.70;23.80;;;1.10;99.90;;;;;;5111494;27;20043;-60
2024/03/09 01:40:41;;;;;;;43.90;22.05;;;1.00;99.90;;;;;;5091481;27;20050;-56
2024/03/09 01:43:27;;;;;;;45.77;23.27;;;1.10;99.90;;;;;;5104848;27;20336;-60
2024/03/09 01:46:15;;;;;;;41.03;21.10;;;1.00;99.90;;;;;;5092281;28;20097;-60
2024/03/09 01:49:01;;;;;;;48.85;24.52;;;1.00;99.90;;;;;;5095322;28;20027;-57
2024/03/09 01:51:48;;;;;;;46.83;23.67;;;0.90;99.90;;;;;;5101087;28;20047;-60
2024/03/09 01:54:34;;;;;;;;;;;0.90;99.90;;;;;;5102178;27;20124;-60
2024/03/09 01:57:20;;;;;;;49.38;24.38;;;0.90;99.90;;;;;;5100866;27;19922;-59
2024/03/09 02:00:10;;;;;;;46.75;23.88;;;0.80;99.90;;;;;;5093504;27;20035;-60
2024/03/09 02:02:56;;;;;;;54.60;26.13;;;0.80;99.90;;;;;;5094930;27;20043;-60
2024/03/09 02:05:45;;;;;;;56.58;25.52;;;0.70;99.90;;;;;;5090834;28;20039;-60
2024/03/09 02:08:31;;;;;;;45.35;23.20;;;0.80;99.90;;;;;;5096324;27;20095;-60
2024/03/09 02:11:17;;;;;;;44.90;22.73;;;0.90;99.90;;;;;;5094091;28;20024;-60
2024/03/09 02:14:07;;;;;;;47.60;24.07;;;1.00;99.90;;;;;;5106638;27;20024;-60
2024/03/09 02:16:55;;;;;;;47.30;23.23;;;1.00;99.90;;;;;;5095041;28;20335;-60
2024/03/09 02:19:41;;;;;;;48.83;23.27;;;1.00;99.90;;;;;;5105974;27;20035;-58
2024/03/09 02:22:27;;;;;;;;;;;1.10;99.90;;;;;;5092224;28;20043;-60
2024/03/09 02:25:15;;;;;;;38.85;20.83;;;1.10;99.90;;;;;;5093238;27;19912;-60
2024/03/09 02:28:02;;;;;;;47.90;23.08;;;1.10;99.90;;;;;;5098676;27;20073;-59
2024/03/09 02:30:48;;;;;;;47.63;23.73;;;1.10;99.90;;;;;;5105622;27;20046;-60
2024/03/09 02:33:34;;;;;;;41.53;21.17;;;1.10;99.90;;;;;;5099258;28;20032;-59
2024/03/09 02:36:27;;;;;;;41.27;21.13;;;1.10;99.90;;;;;;5104732;27;20032;-59
2024/03/09 02:39:13;;;;;;;44.38;22.90;;;1.00;99.90;;;;;;5098794;27;20105;-60
2024/03/09 02:41:59;;;;;;;40.90;21.23;;;1.00;99.90;;;;;;5093032;28;20039;-58
2024/03/09 02:44:45;;;;;;;44.03;23.33;;;1.00;99.90;;;;;;5105123;27;20046;-59
2024/03/09 02:47:31;;;;;;;41.40;22.48;;;1.00;99.90;;;;;;5083236;28;20413;-59
2024/03/09 02:50:17;;;;;;;46.92;22.08;;;1.00;99.90;;;;;;5108003;27;20038;-59
2024/03/09 02:53:03;;;;;;;43.80;21.97;;;0.90;99.90;;;;;;5094326;27;20567;-60
2024/03/09 02:55:49;;;;;;;49.55;23.35;;;0.90;99.90;;;;;;5101048;28;20042;-59
2024/03/09 02:58:35;;;;;;;48.03;23.70;;;0.80;99.90;;;;;;5098969;28;20575;-60
2024/03/09 03:01:22;;;;;;;48.13;24.17;;;0.90;99.90;;;;;;5086770;28;20044;-59
2024/03/09 03:04:11;;;;;;;48.97;23.13;;;1.00;99.90;;;;;;5097477;28;20038;-60
2024/03/09 03:06:57;;;;;;;50.20;24.42;;;1.00;99.90;;;;;;5097701;28;20039;-59
2024/03/09 03:09:48;;;;;;;49.70;25.07;;;1.00;99.90;;;;;;5111622;28;20093;-58
2024/03/09 03:12:33;;;;;;;49.85;24.75;;;1.00;99.90;;;;;;5098533;28;20031;-60
2024/03/09 03:15:20;;;;;;;50.27;24.17;;;1.00;99.90;;;;;;5093273;28;20024;-60
2024/03/09 03:18:08;;;;;;;46.45;23.75;;;1.10;99.90;;;;;;5096255;28;20282;-60
2024/03/09 03:20:54;;;;;;;45.47;22.58;;;1.10;99.90;;;;;;5089410;28;20121;-59
2024/03/09 03:23:39;;;;;;;51.33;25.47;;;1.00;99.90;;;;;;5092816;28;20483;-60
2024/03/09 03:26:26;;;;;;;45.58;23.02;;;1.10;99.90;;;;;;5103384;28;20097;-60
2024/03/09 03:29:12;;;;;;;43.03;22.50;;;1.10;99.90;;;;;;5097770;28;20035;-59
2024/03/09 03:32:00;;;;;;;43.53;20.57;;;1.10;99.90;;;;;;5101991;28;20100;-59
2024/03/09 03:34:46;;;;;;;44.05;21.08;;;1.10;99.90;;;;;;5092679;28;20123;-60
2024/03/09 03:37:33;;;;;;;42.85;20.48;;;1.00;99.90;;;;;;5097366;28;20079;-59
2024/03/09 03:40:22;;;;;;;45.58;20.40;;;1.00;99.90;;;;;;5104162;28;20035;-60
2024/03/09 03:43:08;;;;;;;39.05;20.25;;;0.90;99.90;;;;;;5093479;28;20032;-60
2024/03/09 03:45:54;;;;;;;41.53;20.60;;;0.90;99.90;;;;;;5095856;28;20066;-59
2024/03/09 03:48:44;;;;;;;40.07;20.40;;;0.90;99.90;;;;;;5100064;28;20286;-58
2024/03/09 03:51:30;;;;;;;38.35;20.48;;;0.90;99.90;;;;;;5101745;28;20031;-59
2024/03/09 03:54:16;;;;;;;43.97;20.77;;;0.90;99.90;;;;;;5097629;27;20019;-57
2024/03/09 03:57:02;;;;;;;36.37;18.97;;;0.90;99.90;;;;;;5098430;28;20096;-58
2024/03/09 03:59:48;;;;;;;39.15;19.83;;;0.90;99.90;;;;;;5104115;28;20093;-58
2024/03/09 04:02:35;;;;;;;40.73;20.53;;;0.90;99.90;;;;;;5095596;28;20040;-60
2024/03/09 04:05:21;;;;;;;37.03;19.50;;;0.90;99.90;;;;;;5106051;27;20118;-60
2024/03/09 04:08:07;;;;;;;39.72;19.58;;;0.90;99.90;;;;;;5096413;27;20027;-60
2024/03/09 04:10:52;;;;;;;40.63;20.53;;;0.90;99.90;;;;;;5097519;28;20035;-60
2024/03/09 04:13:38;;;;;;;33.60;17.20;;;1.00;99.90;;;;;;5097988;28;20282;-59
2024/03/09 04:16:24;;;;;;;34.80;17.63;;;1.00;99.90;;;;;;5099160;27;20032;-60
2024/03/09 04:19:13;;;;;;;36.45;18.95;;;0.90;99.90;;;;;;5083994;28;20114;-60
2024/03/09 04:21:59;;;;;;;36.90;19.65;;;0.90;99.90;;;;;;5098747;28;20150;-59
2024/03/09 04:24:45;;;;;;;35.63;18.53;;;0.90;99.90;;;;;;5110753;27;20035;-60
2024/03/09 04:27:31;;;;;;;39.40;20.08;;;0.90;99.90;;;;;;5103398;27;20318;-57
2024/03/09 04:30:17;;;;;;;33.53;18.03;;;1.00;99.90;;;;;;5100573;27;20031;-57
2024/03/09 04:33:08;;;;;;;33.10;16.77;;;1.00;99.90;;;;;;5105435;27;20097;-59
2024/03/09 04:35:54;;;;;;;32.03;17.23;;;1.00;99.90;;;;;;5098837;28;20050;-60
2024/03/09 04:38:40;;;;;;;33.70;17.03;;;0.90;99.90;;;;;;5101509;28;20096;-59
2024/03/09 04:41:28;;;;;;;36.43;17.10;;;1.00;99.90;;;;;;5099677;27;20039;-59
2024/03/09 04:44:14;;;;;;;34.75;17.33;;;0.90;99.90;;;;;;5099673;28;20284;-60
2024/03/09 04:47:01;;;;;;;35.03;17.52;;;0.90;99.90;;;;;;5103703;28;20055;-60
2024/03/09 04:49:47;;;;;;;36.58;17.30;;;0.90;99.90;;;;;;5108088;27;20035;-59
2024/03/09 04:52:34;;;;;;;35.47;17.08;;;0.90;99.90;;;;;;5102462;27;20517;-60
2024/03/09 04:55:22;;;;;;;35.55;19.00;;;0.80;99.90;;;;;;5100878;27;20046;-59
2024/03/09 04:58:13;;;;;;;39.80;18.83;;;0.90;99.90;;;;;;5103553;28;20027;-59
2024/03/09 05:00:59;;;;;;;33.55;17.60;;;0.90;99.90;;;;;;5099637;28;20703;-59
2024/03/09 05:03:45;;;;;;;34.03;16.80;;;1.00;99.90;;;;;;5099628;27;20103;-58
2024/03/09 05:06:34;;;;;;;32.72;17.63;;;1.00;99.90;;;;;;5079248;28;20650;-60
2024/03/09 05:09:19;;;;;;;31.63;15.98;;;1.00;99.90;;;;;;5101459;27;20040;-58
2024/03/09 05:12:06;;;;;;;37.27;17.07;;;1.00;99.90;;;;;;5109552;27;20020;-60
2024/03/09 05:14:52;;;;;;;32.95;16.55;;;1.00;99.90;;;;;;5102993;28;20114;-59
2024/03/09 05:17:38;;;;;;;33.17;17.47;;;0.90;99.90;;;;;;5103032;27;20058;-58
2024/03/09 05:20:27;;;;;;;;;;;0.90;99.90;;;;;;5103213;28;20623;-59
2024/03/09 05:23:13;;;;;;;34.88;17.67;;;0.90;99.90;;;;;;5100662;27;19916;-59
2024/03/09 05:25:59;;;;;;;36.03;18.63;;;0.80;99.90;;;;;;5098818;27;20035;-60
2024/03/09 05:28:45;;;;;;;40.40;18.47;;;0.70;99.90;;;;;;5099741;28;20043;-59
2024/03/09 05:31:31;;;;;;;31.25;16.75;;;0.70;99.90;;;;;;5102098;28;20036;-59
2024/03/09 05:34:18;;;;;;;32.92;17.50;;;0.70;99.90;;;;;;5100175;27;20472;-59
2024/03/09 05:37:06;;;;;;;33.05;17.55;;;0.70;99.90;;;;;;5103947;27;20520;-59
2024/03/09 05:39:52;;;;;;;31.80;16.58;;;0.70;99.90;;;;;;5098970;28;20104;-58
2024/03/09 05:42:38;;;;;;;35.17;14.97;;;0.70;99.90;;;;;;5097782;27;20032;-58
2024/03/09 05:45:23;;;;;;;30.67;16.05;;;0.70;99.90;;;;;;5101450;27;20061;-59
2024/03/09 05:48:10;;;;;;;31.30;15.63;;;0.60;99.90;;;;;;5107085;27;20032;-57
2024/03/09 05:50:56;;;;;;;;;;;0.60;99.90;;;;;;5105074;27;20456;-60
2024/03/09 05:53:42;;;;;;;32.47;16.63;;;0.60;99.90;;;;;;5093752;28;19961;-59
2024/03/09 05:56:28;;;;;;;31.27;15.45;;;0.60;99.90;;;;;;5095335;28;20028;-59
2024/03/09 05:59:15;;;;;;;37.57;16.87;;;0.60;99.90;;;;;;5084638;28;20148;-58
2024/03/09 06:02:02;;;;;;;;;;;0.60;99.90;;;;;;5103606;27;20031;-60
2024/03/09 06:04:48;;;;;;;;;;;0.60;99.90;;;;;;5102085;27;19911;-60
2024/03/09 06:07:38;;;;;;;29.25;14.77;;;0.70;99.90;;;;;;5093493;27;19916;-58
2024/03/09 06:10:24;;;;;;;33.95;16.75;;;0.70;99.90;;;;;;5093004;28;20036;-59
2024/03/09 06:13:11;;;;;;;28.52;14.93;;;0.70;99.90;;;;;;5100502;28;20377;-60
2024/03/09 06:15:57;;;;;;;34.97;16.80;;;0.80;99.90;;;;;;5097784;28;20044;-58
2024/03/09 06:18:47;;;;;;;28.80;15.60;;;0.70;99.90;;;;;;5103942;27;20035;-59
2024/03/09 06:21:33;;;;;;;30.35;15.50;;;0.80;99.90;;;;;;5100407;28;20262;-59
2024/03/09 06:24:19;;;;;;;28.20;14.63;;;0.80;99.90;;;;;;5102771;27;20169;-59
2024/03/09 06:27:09;;;;;;;33.17;15.77;;;0.80;99.90;;;;;;5101485;27;20543;-59
2024/03/09 06:29:56;;;;;;;30.30;15.73;;;0.90;99.90;;;;;;5103113;27;20035;-59
2024/03/09 06:32:49;;;;;;;28.85;14.80;;;0.90;99.90;;;;;;5102194;27;20351;-57
2024/03/09 06:35:35;;;;;;;29.88;15.52;;;1.00;99.90;;;;;;5082186;28;20083;-59
2024/03/09 06:38:21;;;;;;;29.80;14.73;;;1.10;99.90;;;;;;5100831;27;20031;-58
2024/03/09 06:41:09;;;;;;;29.80;15.63;;;1.20;99.90;;;;;;5093817;28;20040;-59
2024/03/09 06:43:56;;;;;;;28.38;15.20;;;1.30;99.90;;;;;;5100945;27;20047;-59
2024/03/09 06:46:43;;;;;;;;;;;1.50;99.90;;;;;;5100282;28;20412;-58
2024/03/09 06:49:30;;;;;;;30.88;15.20;;;1.60;99.90;;;;;;5096409;28;20292;-58
2024/03/09 06:52:18;;;;;;;26.20;13.90;;;1.70;99.90;;;;;;5099918;27;20039;-59
2024/03/09 06:55:04;;;;;;;25.50;13.18;;;2.30;99.90;;;;;;5099641;27;20528;-58
2024/03/09 06:57:51;;;;;;;23.58;13.23;;;2.60;99.90;;;;;;5100796;27;20126;-59
2024/03/09 07:00:37;;;;;;;;;;;3.00;99.90;;;;;;5082499;28;20074;-59
2024/03/09 07:03:23;;;;;;;24.90;13.15;;;3.50;99.90;;;;;;5096820;28;19916;-59
2024/03/09 07:06:09;;;;;;;23.95;13.50;;;3.80;99.90;;;;;;5097176;28;20028;-60
2024/03/09 07:08:55;;;;;;;22.00;12.40;;;4.00;99.90;;;;;;5096134;28;20500;-58
2024/03/09 07:11:41;;;;;;;26.30;13.88;;;4.00;99.90;;;;;;5101730;28;20122;-60
2024/03/09 07:14:27;;;;;;;24.40;11.93;;;4.20;99.90;;;;;;5099370;28;20074;-61
2024/03/09 07:17:17;;;;;;;25.00;12.37;;;4.40;99.90;;;;;;5100643;28;20059;-62
2024/03/09 07:20:10;;;;;;;24.30;13.02;;;4.40;99.90;;;;;;5085307;28;20433;-62
2024/03/09 07:22:56;;;;;;;24.58;13.45;;;4.40;99.90;;;;;;5093757;28;20028;-62
2024/03/09 07:25:42;;;;;;;22.83;13.00;;;4.20;99.90;;;;;;5101202;28;20039;-60
2024/03/09 07:28:29;;;;;;;25.27;12.77;;;4.20;99.90;;;;;;5100403;28;20118;-56
2024/03/09 07:31:15;;;;;;;26.70;12.80;;;4.10;99.90;;;;;;5088957;28;20027;-61
2024/03/09 07:34:01;;;;;;;21.87;12.50;;;4.10;99.90;;;;;;5100969;27;20027;-61
2024/03/09 07:36:47;;;;;;;18.92;11.57;;;4.10;99.90;;;;;;5089062;28;20385;-53
2024/03/09 07:39:37;;;;;;;24.45;12.32;;;4.20;99.90;;;;;;5103253;27;20054;-58
2024/03/09 07:42:23;;;;;;;23.27;12.73;;;4.20;99.90;;;;;;5104179;27;20047;-57
2024/03/09 07:45:11;;;;;;;24.77;12.73;;;4.20;99.90;;;;;;5107276;27;20080;-57
2024/03/09 07:47:58;;;;;;;21.20;11.07;;;4.20;99.90;;;;;;5101007;28;20067;-56
2024/03/09 07:50:48;;;;;;;22.55;12.18;;;4.20;99.90;;;;;;5097834;28;20027;-59
2024/03/09 07:53:38;;;;;;;22.70;12.20;;;4.30;99.90;;;;;;5100666;27;20466;-61
2024/03/09 07:56:24;;;;;;;22.95;11.80;;;4.30;99.90;;;;;;5099267;27;20035;-61
2024/03/09 07:59:11;;;;;;;18.55;9.82;;;4.30;99.90;;;;;;5099671;27;20035;-61
2024/03/09 08:01:57;;;;;;;;;;;4.30;99.90;;;;;;5096444;28;20046;-61
2024/03/09 08:04:43;;;;;;;24.10;12.43;;;4.30;99.90;;;;;;5105686;27;20394;-59
2024/03/09 08:07:30;;;;;;;23.80;12.00;;;4.30;99.90;;;;;;5097921;27;20040;-61
2024/03/09 08:10:20;;;;;;;20.88;11.00;;;4.40;99.90;;;;;;5103492;27;20043;-60
2024/03/09 08:13:06;;;;;;;22.20;12.45;;;4.50;99.90;;;;;;5100476;27;20059;-60
2024/03/09 08:15:53;;;;;;;21.13;11.60;;;4.40;99.90;;;;;;5104068;27;20035;-59
2024/03/09 08:18:39;;;;;;;24.73;11.88;;;4.50;99.90;;;;;;5101795;28;20475;-60
2024/03/09 08:21:25;;;;;;;19.20;10.75;;;4.50;99.90;;;;;;5106824;27;20040;-60
2024/03/09 08:24:12;;;;;;;26.10;12.82;;;4.60;99.90;;;;;;5099290;28;20111;-59
2024/03/09 08:26:59;;;;;;;;;;;4.60;99.90;;;;;;5088677;28;20039;-60
2024/03/09 08:29:45;;;;;;;23.55;12.07;;;4.70;99.90;;;;;;5103171;28;19914;-60
2024/03/09 08:32:32;;;;;;;21.15;12.05;;;4.80;99.90;;;;;;5098865;28;20031;-60
2024/03/09 08:35:19;;;;;;;;;;;4.80;99.90;;;;;;5086780;28;20023;-60
2024/03/09 08:38:06;;;;;;;24.85;12.82;;;4.90;99.90;;;;;;5100102;28;19951;-57
2024/03/09 08:40:53;;;;;;;23.17;12.88;;;4.80;99.90;;;;;;5097619;27;20035;-60
2024/03/09 08:43:39;;;;;;;22.58;12.38;;;4.70;99.90;;;;;;5102039;27;20024;-58
2024/03/09 08:46:26;;;;;;;20.10;11.75;;;4.80;99.90;;;;;;5099534;27;20074;-60
2024/03/09 08:49:13;;;;;;;23.25;13.15;;;4.80;99.90;;;;;;5100932;28;20429;-60
2024/03/09 08:51:59;;;;;;;19.75;11.65;;;5.00;99.90;;;;;;5103076;28;20257;-58
2024/03/09 08:54:46;;;;;;;23.33;12.88;;;4.90;99.90;;;;;;5086145;27;20078;-60
2024/03/09 08:57:31;;;;;;;19.17;11.30;;;5.00;99.90;;;;;;5097785;28;20087;-59
2024/03/09 09:00:24;;;;;;;16.38;8.95;;;5.00;99.90;;;;;;5094156;28;20028;-59
2024/03/09 09:03:13;;;;;;;22.13;12.55;;;5.10;99.90;;;;;;5076868;28;20809;-59
2024/03/09 09:05:59;;;;;;;20.80;11.25;;;5.00;99.90;;;;;;5104216;27;20043;-60
2024/03/09 09:08:46;;;;;;;22.10;12.67;;;5.10;99.90;;;;;;5090070;28;20032;-59
2024/03/09 09:11:32;;;;;;;20.25;11.98;;;5.10;99.90;;;;;;5073859;28;20564;-59
2024/03/09 09:14:19;;;;;;;23.65;13.23;;;5.10;99.90;;;;;;5092266;27;20177;-59
2024/03/09 09:17:09;;;;;;;22.50;12.15;;;5.20;99.90;;;;;;5095586;27;20040;-58
2024/03/09 09:19:55;;;;;;;22.85;12.68;;;5.20;99.90;;;;;;5086690;28;20032;-60
2024/03/09 09:22:42;;;;;;;20.17;11.97;;;5.20;99.90;;;;;;5097553;28;20529;-59
2024/03/09 09:25:28;;;;;;;23.13;12.70;;;5.40;99.90;;;;;;5100879;28;20520;-61
2024/03/09 09:28:16;;;;;;;24.83;14.02;;;5.50;99.90;;;;;;5092351;28;20035;-59
2024/03/09 09:31:03;;;;;;;23.30;12.52;;;5.50;99.90;;;;;;5085098;28;20584;-60
2024/03/09 09:33:49;;;;;;;23.05;12.50;;;5.60;99.90;;;;;;5097093;27;20046;-60
2024/03/09 09:36:35;;;;;;;25.63;14.68;;;5.90;99.90;;;;;;5086165;27;20051;-60
2024/03/09 09:39:24;;;;;;;61.45;14.57;;;6.10;99.90;;;;;;5093888;28;20992;-60
2024/03/09 09:42:11;;;;;;;26.40;14.10;;;6.30;99.90;;;;;;5102116;27;20032;-60
2024/03/09 09:44:57;;;;;;;22.98;13.00;;;6.30;99.90;;;;;;5098800;28;20059;-60
2024/03/09 09:47:47;;;;;;;21.83;13.07;;;6.30;99.90;;;;;;5098983;28;20062;-59
2024/03/09 09:50:36;;;;;;;24.13;13.18;;;6.60;99.90;;;;;;5102272;27;20436;-60
2024/03/09 09:53:22;;;;;;;25.10;14.20;;;6.80;99.90;;;;;;5097589;27;20119;-60
2024/03/09 09:56:08;;;;;;;26.45;14.13;;;6.90;99.90;;;;;;5105745;27;20114;-61
2024/03/09 09:58:54;;;;;;;22.90;12.73;;;6.90;99.90;;;;;;5102016;27;20039;-61
2024/03/09 10:01:40;;;;;;;22.58;12.40;;;7.20;99.90;;;;;;5101331;27;20043;-61
2024/03/09 10:04:26;;;;;;;26.40;14.07;;;7.30;99.90;;;;;;5097488;28;20094;-61
2024/03/09 10:07:14;;;;;;;23.63;13.57;;;7.10;99.90;;;;;;5095463;28;20039;-61
2024/03/09 10:10:13;;;;;;;28.05;13.55;;;7.30;99.90;;;;;;5095958;27;20158;-61
2024/03/09 10:13:13;;;;;;;26.70;14.30;;;7.40;99.90;;;;;;5096995;27;20036;-61
2024/03/09 10:16:02;;;;;;;25.25;14.38;;;7.40;99.90;;;;;;5095960;27;20078;-61
2024/03/09 10:18:50;;;;;;;24.77;14.60;;;7.30;99.90;;;;;;5098748;27;20063;-61
2024/03/09 10:21:39;;;;;;;27.50;14.48;;;7.30;99.90;;;;;;5099901;28;20027;-61
2024/03/09 10:24:26;;;;;;;25.65;15.02;;;7.40;99.90;;;;;;5084995;28;20035;-61
2024/03/09 10:27:18;;;;;;;22.85;14.05;;;7.70;99.90;;;;;;5091771;28;20115;-61
2024/03/09 10:30:12;;;;;;;25.83;13.82;;;7.70;99.90;;;;;;5086839;27;20039;-61
2024/03/09 10:33:00;;;;;;;25.42;15.10;;;7.80;99.90;;;;;;5102737;27;20484;-61
2024/03/09 10:35:48;;;;;;;25.25;13.80;;;7.90;99.90;;;;;;5094612;28;20096;-61
2024/03/09 10:38:36;;;;;;;25.23;14.25;;;8.00;99.90;;;;;;5101348;27;20123;-61
2024/03/09 10:41:23;;;;;;;25.08;14.00;;;8.00;99.90;;;;;;5086815;27;20035;-61
2024/03/09 10:44:10;;;;;;;27.90;14.90;;;8.20;99.90;;;;;;5100541;27;20027;-61
2024/03/09 10:47:03;;;;;;;23.55;13.35;;;8.10;99.90;;;;;;5100678;28;20035;-60
2024/03/09 10:49:59;;;;;;;24.27;14.18;;;8.20;99.90;;;;;;5088504;28;20034;-61
2024/03/09 10:52:54;;;;;;;23.80;14.00;;;8.30;99.90;;;;;;5099586;28;20035;-61
2024/03/09 10:56:06;;;;;;;25.00;14.57;;;8.30;99.90;;;;;;5098091;28;20063;-62
2024/03/09 10:58:53;;;;;;;24.10;14.38;;;8.30;99.90;;;;;;5095911;28;20027;-62
2024/03/09 11:01:41;;;;;;;23.65;12.85;;;8.40;99.90;;;;;;5082658;28;20055;-59
2024/03/09 11:04:28;;;;;;;24.35;13.77;;;8.50;99.90;;;;;;5100836;28;20074;-62
2024/03/09 11:07:14;;;;;;;24.05;14.57;;;8.60;99.90;;;;;;5097944;28;20511;-62
2024/03/09 11:10:05;;;;;;;26.98;13.50;;;8.50;99.90;;;;;;5100969;28;20065;-61
2024/03/09 11:12:52;;;;;;;23.13;13.80;;;8.60;99.90;;;;;;5097167;28;20024;-61
2024/03/09 11:15:38;;;;;;;22.77;14.07;;;8.70;99.90;;;;;;5099534;28;20544;-61
2024/03/09 11:18:25;;;;;;;24.13;13.57;;;8.70;99.90;;;;;;5098993;28;20040;-61
2024/03/09 11:21:34;;;;;;;24.35;13.70;;;8.70;99.90;;;;;;5095167;28;20028;-61
2024/03/09 11:24:27;;;;;;;24.40;14.63;;;8.70;99.90;;;;;;5105832;28;20158;-61
2024/03/09 11:27:13;;;;;;;22.90;13.65;;;8.60;99.90;;;;;;5105321;28;20572;-61
2024/03/09 11:30:05;;;;;;;24.02;13.77;;;8.40;99.90;;;;;;5100884;28;20564;-61
2024/03/09 11:32:54;;;;;;;25.95;13.45;;;8.60;99.90;;;;;;5101611;28;20043;-61
2024/03/09 11:35:39;;;;;;;24.33;13.65;;;8.80;99.90;;;;;;5099248;28;20046;-61
2024/03/09 11:38:27;;;;;;;22.40;13.90;;;8.90;99.90;;;;;;5104767;28;20236;-61
2024/03/09 11:41:23;;;;;;;24.20;12.98;;;8.90;99.90;;;;;;5105047;28;20419;-61
2024/03/09 11:44:10;;;;;;;22.20;13.10;;;9.00;99.90;;;;;;5100176;28;20058;-61
2024/03/09 11:46:56;;;;;;;24.88;13.65;;;8.80;99.90;;;;;;5107310;28;20171;-61
2024/03/09 11:49:44;;;;;;;24.48;13.23;;;8.90;99.90;;;;;;5100664;28;20050;-61
2024/03/09 11:52:32;;;;;;;24.52;13.50;;;8.90;99.90;;;;;;5085205;28;20388;-61
2024/03/09 11:55:20;;;;;;;19.55;11.63;;;9.00;99.90;;;;;;5099648;28;20023;-62
2024/03/09 11:58:09;;;;;;;22.25;11.57;;;9.20;99.90;;;;;;5101028;28;20036;-61
2024/03/09 12:00:56;;;;;;;20.38;12.23;;;9.20;99.90;;;;;;5102709;28;20065;-61
2024/03/09 12:03:42;;;;;;;21.13;12.38;;;9.20;99.90;;;;;;5092046;28;20036;-61
2024/03/09 12:06:28;;;;;;;25.17;12.48;;;9.30;99.90;;;;;;5093907;28;20059;-61
2024/03/09 12:09:13;;;;;;;20.67;12.10;;;9.40;99.90;;;;;;5092084;28;20092;-61
2024/03/09 12:12:08;;;;;;;21.58;12.65;;;9.30;99.90;;;;;;5082273;28;20023;-61
2024/03/09 12:14:54;;;;;;;21.65;11.63;;;9.30;99.90;;;;;;5095277;28;20030;-61
2024/03/09 12:17:41;;;;;;;26.50;12.05;;;9.20;99.90;;;;;;5096192;28;20028;-61
2024/03/09 12:20:28;;;;;;;23.98;14.10;;;9.30;99.90;;;;;;5094530;27;20112;-61
2024/03/09 12:23:17;;;;;;;18.60;11.95;;;9.30;99.90;;;;;;5093974;28;20052;-61
2024/03/09 12:26:03;;;;;;;22.77;11.60;;;9.40;99.90;;;;;;5095765;28;20043;-61
2024/03/09 12:28:49;;;;;;;18.52;11.55;;;9.60;99.90;;;;;;5099137;27;20023;-61
2024/03/09 12:31:38;;;;;;;19.88;11.80;;;9.70;99.90;;;;;;5097125;28;20384;-61
2024/03/09 12:34:24;;;;;;;20.08;12.40;;;9.70;99.90;;;;;;5099743;27;20623;-61
2024/03/09 12:37:11;;;;;;;19.60;11.02;;;9.80;99.90;;;;;;5098243;27;20032;-61
2024/03/09 12:40:17;;;;;;;;;;;9.90;99.90;;;;;;5103799;27;20173;-61
2024/03/09 12:43:05;;;;;;;16.02;10.00;;;10.00;99.90;;;;;;5092930;27;20018;-61
2024/03/09 12:45:55;;;;;;;19.90;11.98;;;10.10;99.90;;;;;;5099559;28;20114;-61
2024/03/09 12:48:41;;;;;;;19.67;11.88;;;10.20;99.90;;;;;;5101971;27;20464;-61
2024/03/09 12:51:27;;;;;;;21.33;11.70;;;10.20;99.90;;;;;;5103602;27;20128;-61
2024/03/09 12:54:13;;;;;;;17.88;10.32;;;10.30;99.90;;;;;;5100970;27;20752;-61
2024/03/09 12:57:03;;;;;;;20.15;11.63;;;10.40;99.60;;;;;;5104808;27;20031;-61
2024/03/09 12:59:50;;;;;;;20.95;11.73;;;10.40;99.90;;;;;;5101342;28;20138;-61
2024/03/09 13:02:36;;;;;;;20.05;11.77;;;10.30;99.90;;;;;;5096196;27;20047;-61
2024/03/09 13:05:23;;;;;;;18.70;10.60;;;10.40;99.90;;;;;;5100238;27;20050;-61
2024/03/09 13:08:11;;;;;;;21.98;11.13;;;10.50;99.90;;;;;;5095303;28;20036;-61
2024/03/09 13:10:58;;;;;;;18.98;11.20;;;10.50;98.30;;;;;;5089294;27;20027;-61
2024/03/09 13:13:47;;;;;;;19.13;11.60;;;10.30;98.20;;;;;;5085496;28;20027;-61
2024/03/09 13:16:33;;;;;;;20.58;10.80;;;10.30;99.80;;;;;;5103880;28;20035;-62
2024/03/09 13:19:20;;;;;;;18.15;11.15;;;10.30;99.00;;;;;;5098696;28;20047;-61
2024/03/09 13:22:08;;;;;;;18.95;11.18;;;10.40;99.90;;;;;;5097546;28;20051;-61
2024/03/09 13:24:54;;;;;;;19.63;11.48;;;10.50;99.60;;;;;;5107895;27;20075;-61
2024/03/09 13:27:40;;;;;;;18.90;10.60;;;10.60;99.90;;;;;;5105686;27;20030;-61
2024/03/09 13:30:26;;;;;;;18.65;11.18;;;10.40;98.40;;;;;;5110658;27;20064;-61
2024/03/09 13:33:15;;;;;;;19.93;10.97;;;10.40;99.00;;;;;;5096616;28;20020;-61
2024/03/09 13:36:01;;;;;;;18.67;11.60;;;10.40;99.40;;;;;;5100396;27;20031;-61
2024/03/09 13:38:49;;;;;;;17.98;11.35;;;10.30;99.40;;;;;;5100424;28;20054;-61
2024/03/09 13:41:35;;;;;;;15.05;9.27;;;10.30;98.60;;;;;;5097452;28;20039;-61
2024/03/09 13:44:23;;;;;;;18.25;10.55;;;10.30;99.90;;;;;;5103901;27;20110;-61
2024/03/09 13:47:11;;;;;;;15.25;9.55;;;10.40;98.80;;;;;;5104465;27;20027;-61
2024/03/09 13:49:57;;;;;;;17.48;9.75;;;10.40;99.00;;;;;;5101575;28;20172;-61
2024/03/09 13:52:43;;;;;;;17.80;10.25;;;10.50;99.30;;;;;;5098134;28;20027;-62
2024/03/09 13:55:29;;;;;;;17.30;9.88;;;10.50;98.70;;;;;;5097909;27;20043;-62
2024/03/09 13:58:18;;;;;;;16.97;9.40;;;10.40;98.40;;;;;;5096249;28;20027;-62
2024/03/09 14:01:09;;;;;;;17.45;10.77;;;10.40;98.50;;;;;;5100617;27;20274;-62
2024/03/09 14:03:57;;;;;;;18.83;10.90;;;10.30;98.50;;;;;;5100656;28;20628;-62
2024/03/09 14:06:44;;;;;;;17.92;9.35;;;10.30;99.10;;;;;;5097090;28;20031;-63
2024/03/09 14:09:36;;;;;;;17.05;9.50;;;10.30;98.30;;;;;;5095542;27;20092;-62
2024/03/09 14:12:22;;;;;;;16.60;9.70;;;10.30;99.00;;;;;;5094403;28;20123;-63
2024/03/09 14:15:20;;;;;;;15.20;9.30;;;10.20;98.70;;;;;;5102312;27;20396;-60
2024/03/09 14:18:13;;;;;;;17.73;10.52;;;10.20;99.90;;;;;;5097608;27;20058;-60
2024/03/09 14:21:06;;;;;;;18.15;9.60;;;10.20;99.40;;;;;;5100531;27;20114;-62
2024/03/09 14:23:53;;;;;;;16.63;9.45;;;10.20;99.90;;;;;;5098166;27;20370;-61